createdAt,value
2019-01-16T00:00:14.289Z,997.25
2019-01-16T00:01:14.364Z,997.26
2019-01-16T00:02:14.263Z,997.22
2019-01-16T00:03:14.256Z,997.31
2019-01-16T00:04:14.338Z,997.28
2019-01-16T00:05:14.290Z,997.23
2019-01-16T00:06:14.211Z,997.19
2019-01-16T00:07:14.201Z,997.23
2019-01-16T00:08:14.220Z,997.20
2019-01-16T00:09:14.190Z,997.20
2019-01-16T00:10:14.201Z,997.16
2019-01-16T00:11:14.171Z,997.23
2019-01-16T00:12:14.145Z,997.14
2019-01-16T00:13:14.140Z,997.13
2019-01-16T00:14:14.135Z,997.20
2019-01-16T00:15:14.190Z,997.16
2019-01-16T00:16:14.149Z,997.17
2019-01-16T00:17:14.100Z,997.15
2019-01-16T00:18:17.165Z,997.12
2019-01-16T00:19:14.069Z,997.17
2019-01-16T00:20:14.061Z,997.10
2019-01-16T00:21:14.054Z,997.11
2019-01-16T00:22:14.150Z,997.07
2019-01-16T00:23:14.026Z,997.04
2019-01-16T00:24:14.030Z,997.01
2019-01-16T00:25:14.010Z,997.04
2019-01-16T00:26:14.016Z,997.04
2019-01-16T00:27:14.038Z,997.00
2019-01-16T00:28:14.029Z,997.05
2019-01-16T00:29:14.002Z,997.07
2019-01-16T00:30:14.001Z,997.03
2019-01-16T00:31:13.948Z,996.97
2019-01-16T00:32:13.938Z,996.95
2019-01-16T00:33:13.925Z,996.91
2019-01-16T00:34:13.956Z,996.94
2019-01-16T00:35:13.951Z,996.96
2019-01-16T00:36:13.885Z,996.92
2019-01-16T00:37:13.873Z,996.96
2019-01-16T00:38:13.874Z,996.91
2019-01-16T00:39:13.869Z,996.91
2019-01-16T00:40:13.907Z,996.89
2019-01-16T00:41:13.883Z,996.85
2019-01-16T00:42:13.836Z,996.89
2019-01-16T00:43:13.821Z,996.83
2019-01-16T00:44:13.800Z,996.84
2019-01-16T00:45:13.798Z,996.84
2019-01-16T00:46:13.836Z,996.80
2019-01-16T00:47:13.805Z,996.83
2019-01-16T00:48:13.784Z,996.77
2019-01-16T00:49:13.797Z,996.81
2019-01-16T00:50:13.734Z,996.78
2019-01-16T00:51:13.736Z,996.80
2019-01-16T00:52:13.751Z,996.77
2019-01-16T00:53:13.711Z,996.84
2019-01-16T00:54:13.694Z,996.80
2019-01-16T00:55:13.694Z,996.78
2019-01-16T00:56:13.673Z,996.78
2019-01-16T00:57:13.670Z,996.80
2019-01-16T00:58:13.740Z,996.79
2019-01-16T00:59:13.638Z,996.76
2019-01-16T01:00:13.628Z,996.78
2019-01-16T01:01:13.610Z,996.77
2019-01-16T01:02:13.699Z,996.75
2019-01-16T01:03:13.602Z,996.75
2019-01-16T01:04:13.625Z,996.77
2019-01-16T01:05:13.573Z,996.72
2019-01-16T01:06:13.556Z,996.72
2019-01-16T01:07:13.556Z,996.71
2019-01-16T01:08:13.595Z,996.70
2019-01-16T01:09:13.527Z,996.71
2019-01-16T01:10:13.556Z,996.71
2019-01-16T01:11:13.531Z,996.73
2019-01-16T01:12:13.500Z,996.74
2019-01-16T01:13:13.497Z,996.80
2019-01-16T01:14:13.483Z,996.75
2019-01-16T01:15:13.467Z,996.77
2019-01-16T01:16:13.497Z,996.67
2019-01-16T01:17:13.464Z,996.73
2019-01-16T01:18:13.436Z,996.76
2019-01-16T01:19:13.427Z,996.75
2019-01-16T01:20:13.413Z,996.75
2019-01-16T01:21:13.400Z,996.71
2019-01-16T01:22:13.461Z,996.72
2019-01-16T01:23:13.384Z,996.69
2019-01-16T01:24:13.383Z,996.70
2019-01-16T01:25:13.361Z,996.71
2019-01-16T01:26:13.354Z,996.69
2019-01-16T01:27:13.354Z,996.70
2019-01-16T01:28:13.434Z,996.72
2019-01-16T01:29:13.350Z,996.65
2019-01-16T01:30:13.345Z,996.70
2019-01-16T01:31:13.305Z,996.73
2019-01-16T01:32:13.274Z,996.73
2019-01-16T01:33:13.297Z,996.72
2019-01-16T01:34:13.322Z,996.66
2019-01-16T01:35:13.257Z,996.67
2019-01-16T01:36:13.253Z,996.73
2019-01-16T01:37:13.367Z,996.67
2019-01-16T01:38:13.209Z,996.65
2019-01-16T01:39:13.207Z,996.66
2019-01-16T01:40:13.245Z,996.64
2019-01-16T01:41:13.182Z,996.65
2019-01-16T01:42:13.181Z,996.70
2019-01-16T01:43:13.165Z,996.66
2019-01-16T01:44:13.173Z,996.67
2019-01-16T01:45:13.138Z,996.64
2019-01-16T01:46:13.203Z,996.69
2019-01-16T01:47:13.126Z,996.63
2019-01-16T01:48:13.104Z,996.63
2019-01-16T01:49:13.106Z,996.63
2019-01-16T01:50:13.106Z,996.56
2019-01-16T01:51:13.084Z,996.58
2019-01-16T01:52:13.096Z,996.56
2019-01-16T01:53:13.048Z,996.56
2019-01-16T01:54:13.111Z,996.59
2019-01-16T01:55:13.027Z,996.58
2019-01-16T01:56:13.025Z,996.55
2019-01-16T01:57:13.039Z,996.54
2019-01-16T01:58:13.045Z,996.56
2019-01-16T01:59:12.996Z,996.56
2019-01-16T02:00:12.979Z,996.49
2019-01-16T02:01:12.976Z,996.51
2019-01-16T02:02:12.969Z,996.51
2019-01-16T02:03:12.947Z,996.49
2019-01-16T02:04:12.977Z,996.49
2019-01-16T02:05:12.926Z,996.50
2019-01-16T02:06:12.948Z,996.43
2019-01-16T02:07:12.908Z,996.48
2019-01-16T02:08:12.894Z,996.47
2019-01-16T02:09:12.896Z,996.46
2019-01-16T02:10:13.065Z,996.43
2019-01-16T02:11:12.859Z,996.41
2019-01-16T02:12:12.868Z,996.40
2019-01-16T02:13:12.836Z,996.39
2019-01-16T02:14:12.829Z,996.37
2019-01-16T02:15:12.814Z,996.36
2019-01-16T02:16:12.881Z,996.41
2019-01-16T02:17:12.795Z,996.39
2019-01-16T02:18:12.790Z,996.35
2019-01-16T02:19:12.827Z,996.42
2019-01-16T02:20:12.766Z,996.31
2019-01-16T02:21:12.771Z,996.35
2019-01-16T02:22:12.799Z,996.37
2019-01-16T02:23:12.738Z,996.34
2019-01-16T02:24:12.750Z,996.31
2019-01-16T02:25:12.710Z,996.33
2019-01-16T02:26:12.709Z,996.33
2019-01-16T02:27:12.700Z,996.32
2019-01-16T02:28:12.702Z,996.33
2019-01-16T02:29:12.690Z,996.35
2019-01-16T02:30:12.684Z,996.42
2019-01-16T02:31:12.671Z,996.38
2019-01-16T02:32:12.649Z,996.30
2019-01-16T02:33:12.637Z,996.34
2019-01-16T02:34:12.643Z,996.33
2019-01-16T02:35:12.615Z,996.32
2019-01-16T02:36:12.590Z,996.25
2019-01-16T02:37:12.591Z,996.26
2019-01-16T02:38:12.561Z,996.27
2019-01-16T02:39:12.555Z,996.25
2019-01-16T02:40:13.493Z,996.26
2019-01-16T02:41:12.532Z,996.22
2019-01-16T02:42:12.590Z,996.23
2019-01-16T02:43:12.512Z,996.21
2019-01-16T02:44:12.506Z,996.15
2019-01-16T02:45:12.513Z,996.17
2019-01-16T02:46:12.531Z,996.19
2019-01-16T02:47:12.473Z,996.20
2019-01-16T02:48:12.459Z,996.14
2019-01-16T02:49:12.492Z,996.19
2019-01-16T02:50:12.493Z,996.17
2019-01-16T02:51:12.427Z,996.19
2019-01-16T02:52:12.476Z,996.17
2019-01-16T02:53:12.400Z,996.16
2019-01-16T02:54:12.398Z,996.12
2019-01-16T02:55:12.386Z,996.11
2019-01-16T02:56:12.370Z,996.10
2019-01-16T02:57:12.398Z,996.12
2019-01-16T02:58:12.393Z,996.10
2019-01-16T02:59:12.335Z,996.09
2019-01-16T03:00:12.387Z,996.01
2019-01-16T03:01:12.333Z,995.98
2019-01-16T03:02:12.304Z,996.02
2019-01-16T03:03:12.334Z,996.03
2019-01-16T03:04:12.311Z,995.97
2019-01-16T03:05:12.295Z,995.95
2019-01-16T03:06:12.277Z,995.96
2019-01-16T03:07:12.300Z,995.95
2019-01-16T03:08:12.262Z,995.95
2019-01-16T03:09:12.243Z,995.94
2019-01-16T03:10:12.266Z,995.98
2019-01-16T03:11:12.215Z,995.97
2019-01-16T03:12:12.220Z,995.91
2019-01-16T03:13:12.220Z,995.96
2019-01-16T03:14:12.200Z,995.99
2019-01-16T03:15:12.191Z,995.98
2019-01-16T03:16:12.187Z,995.91
2019-01-16T03:17:12.147Z,995.95
2019-01-16T03:18:12.145Z,995.96
2019-01-16T03:19:12.134Z,995.92
2019-01-16T03:20:12.124Z,995.94
2019-01-16T03:21:12.104Z,995.98
2019-01-16T03:22:12.169Z,995.99
2019-01-16T03:23:12.110Z,995.98
2019-01-16T03:24:12.078Z,995.97
2019-01-16T03:25:12.065Z,995.93
2019-01-16T03:26:12.048Z,995.94
2019-01-16T03:27:12.049Z,996.01
2019-01-16T03:28:12.072Z,995.92
2019-01-16T03:29:12.017Z,995.89
2019-01-16T03:30:12.028Z,995.92
2019-01-16T03:31:12.012Z,995.93
2019-01-16T03:32:11.980Z,995.90
2019-01-16T03:33:12.021Z,995.97
2019-01-16T03:34:12.005Z,995.94
2019-01-16T03:35:11.987Z,995.92
2019-01-16T03:36:11.957Z,995.91
2019-01-16T03:37:11.950Z,995.82
2019-01-16T03:38:11.926Z,995.87
2019-01-16T03:39:11.963Z,995.83
2019-01-16T03:40:11.933Z,995.86
2019-01-16T03:41:11.894Z,995.86
2019-01-16T03:42:11.873Z,995.82
2019-01-16T03:43:11.871Z,995.82
2019-01-16T03:44:11.861Z,995.85
2019-01-16T03:45:11.848Z,995.78
2019-01-16T03:46:11.919Z,995.81
2019-01-16T03:47:11.827Z,995.77
2019-01-16T03:48:11.813Z,995.77
2019-01-16T03:49:13.860Z,995.77
2019-01-16T03:50:11.801Z,995.74
2019-01-16T03:51:11.784Z,995.72
2019-01-16T03:52:11.833Z,995.72
2019-01-16T03:53:11.758Z,995.69
2019-01-16T03:54:11.818Z,995.62
2019-01-16T03:55:11.732Z,995.63
2019-01-16T03:56:11.724Z,995.66
2019-01-16T03:57:11.711Z,995.63
2019-01-16T03:58:11.775Z,995.66
2019-01-16T03:59:11.694Z,995.61
2019-01-16T04:00:11.686Z,995.61
2019-01-16T04:01:11.704Z,995.61
2019-01-16T04:02:11.661Z,995.57
2019-01-16T04:03:11.658Z,995.58
2019-01-16T04:04:11.692Z,995.56
2019-01-16T04:05:11.633Z,995.58
2019-01-16T04:06:11.627Z,995.47
2019-01-16T04:07:11.629Z,995.52
2019-01-16T04:08:11.602Z,995.45
2019-01-16T04:09:11.585Z,995.51
2019-01-16T04:10:11.621Z,995.48
2019-01-16T04:11:11.587Z,995.45
2019-01-16T04:12:11.557Z,995.45
2019-01-16T04:13:11.544Z,995.46
2019-01-16T04:14:11.532Z,995.41
2019-01-16T04:15:11.523Z,995.34
2019-01-16T04:16:11.542Z,995.41
2019-01-16T04:17:11.521Z,995.40
2019-01-16T04:18:11.541Z,995.38
2019-01-16T04:19:11.485Z,995.42
2019-01-16T04:20:11.463Z,995.37
2019-01-16T04:21:11.458Z,995.39
2019-01-16T04:22:11.513Z,995.37
2019-01-16T04:23:11.447Z,995.33
2019-01-16T04:24:11.419Z,995.31
2019-01-16T04:25:11.410Z,995.37
2019-01-16T04:26:11.394Z,995.30
2019-01-16T04:27:11.387Z,995.29
2019-01-16T04:28:11.442Z,995.26
2019-01-16T04:29:11.429Z,995.29
2019-01-16T04:30:11.373Z,995.29
2019-01-16T04:31:11.343Z,995.25
2019-01-16T04:32:11.334Z,995.25
2019-01-16T04:33:11.328Z,995.15
2019-01-16T04:34:11.431Z,995.20
2019-01-16T04:35:11.331Z,995.20
2019-01-16T04:36:11.306Z,995.19
2019-01-16T04:37:11.329Z,995.20
2019-01-16T04:38:11.309Z,995.16
2019-01-16T04:39:11.264Z,995.19
2019-01-16T04:40:11.328Z,995.20
2019-01-16T04:41:11.233Z,995.22
2019-01-16T04:42:11.227Z,995.21
2019-01-16T04:43:11.210Z,995.21
2019-01-16T04:44:11.206Z,995.15
2019-01-16T04:45:11.214Z,995.14
2019-01-16T04:46:11.237Z,995.14
2019-01-16T04:47:11.171Z,995.12
2019-01-16T04:48:11.159Z,995.06
2019-01-16T04:49:11.149Z,995.06
2019-01-16T04:50:11.135Z,995.06
2019-01-16T04:51:11.125Z,994.98
2019-01-16T04:52:11.145Z,995.04
2019-01-16T04:53:11.119Z,994.98
2019-01-16T04:54:11.103Z,995.06
2019-01-16T04:55:11.075Z,995.02
2019-01-16T04:56:11.078Z,995.06
2019-01-16T04:57:11.105Z,995.06
2019-01-16T04:58:11.338Z,995.04
2019-01-16T04:59:11.049Z,995.06
2019-01-16T05:00:11.026Z,995.00
2019-01-16T05:01:11.014Z,995.00
2019-01-16T05:02:11.019Z,994.96
2019-01-16T05:03:10.994Z,994.96
2019-01-16T05:04:11.007Z,994.91
2019-01-16T05:05:10.991Z,994.94
2019-01-16T05:06:10.956Z,995.01
2019-01-16T05:07:10.946Z,994.92
2019-01-16T05:08:10.949Z,994.93
2019-01-16T05:09:10.925Z,994.90
2019-01-16T05:10:10.951Z,994.93
2019-01-16T05:11:10.904Z,994.92
2019-01-16T05:12:10.891Z,994.92
2019-01-16T05:13:10.880Z,994.87
2019-01-16T05:14:10.877Z,994.91
2019-01-16T05:15:10.859Z,994.90
2019-01-16T05:16:10.880Z,994.92
2019-01-16T05:17:10.839Z,994.96
2019-01-16T05:18:10.830Z,994.96
2019-01-16T05:19:10.816Z,995.03
2019-01-16T05:20:10.829Z,995.01
2019-01-16T05:21:10.796Z,994.94
2019-01-16T05:22:10.837Z,994.96
2019-01-16T05:23:10.773Z,994.92
2019-01-16T05:24:10.786Z,994.90
2019-01-16T05:25:10.756Z,994.88
2019-01-16T05:26:10.761Z,994.89
2019-01-16T05:27:10.731Z,994.88
2019-01-16T05:28:10.756Z,994.95
2019-01-16T05:29:10.708Z,994.91
2019-01-16T05:30:10.697Z,994.85
2019-01-16T05:31:10.687Z,994.94
2019-01-16T05:32:10.694Z,994.84
2019-01-16T05:33:10.665Z,994.89
2019-01-16T05:34:10.702Z,994.88
2019-01-16T05:35:10.642Z,994.80
2019-01-16T05:36:10.631Z,994.77
2019-01-16T05:37:10.625Z,994.73
2019-01-16T05:38:10.628Z,994.75
2019-01-16T05:39:10.603Z,994.71
2019-01-16T05:40:10.637Z,994.79
2019-01-16T05:41:10.579Z,994.74
2019-01-16T05:42:10.567Z,994.77
2019-01-16T05:43:10.557Z,994.75
2019-01-16T05:44:12.145Z,994.74
2019-01-16T05:45:10.537Z,994.74
2019-01-16T05:46:10.554Z,994.73
2019-01-16T05:47:10.514Z,994.73
2019-01-16T05:48:10.506Z,994.71
2019-01-16T05:49:10.493Z,994.70
2019-01-16T05:50:10.536Z,994.72
2019-01-16T05:51:10.472Z,994.74
2019-01-16T05:52:10.503Z,994.70
2019-01-16T05:53:10.448Z,994.73
2019-01-16T05:54:10.443Z,994.74
2019-01-16T05:55:10.432Z,994.71
2019-01-16T05:56:10.433Z,994.70
2019-01-16T05:57:10.406Z,994.75
2019-01-16T05:58:10.593Z,994.79
2019-01-16T05:59:10.382Z,994.72
2019-01-16T06:00:10.374Z,994.81
2019-01-16T06:01:10.364Z,994.72
2019-01-16T06:02:10.358Z,994.68
2019-01-16T06:03:10.341Z,994.71
2019-01-16T06:04:10.359Z,994.66
2019-01-16T06:05:10.318Z,994.77
2019-01-16T06:06:10.308Z,994.75
2019-01-16T06:07:10.488Z,994.77
2019-01-16T06:08:10.303Z,994.77
2019-01-16T06:09:10.278Z,994.74
2019-01-16T06:10:10.308Z,994.74
2019-01-16T06:11:10.253Z,994.69
2019-01-16T06:12:10.243Z,994.70
2019-01-16T06:13:10.233Z,994.74
2019-01-16T06:14:10.237Z,994.70
2019-01-16T06:15:10.213Z,994.71
2019-01-16T06:16:10.271Z,994.70
2019-01-16T06:17:10.188Z,994.68
2019-01-16T06:18:10.177Z,994.70
2019-01-16T06:19:10.168Z,994.69
2019-01-16T06:20:10.187Z,994.70
2019-01-16T06:21:10.147Z,994.71
2019-01-16T06:22:10.170Z,994.72
2019-01-16T06:23:10.125Z,994.72
2019-01-16T06:24:10.113Z,994.67
2019-01-16T06:25:10.101Z,994.65
2019-01-16T06:26:10.104Z,994.70
2019-01-16T06:27:10.079Z,994.66
2019-01-16T06:28:10.109Z,994.66
2019-01-16T06:29:10.060Z,994.66
2019-01-16T06:30:10.051Z,994.66
2019-01-16T06:31:10.038Z,994.70
2019-01-16T06:32:10.032Z,994.69
2019-01-16T06:33:10.015Z,994.66
2019-01-16T06:34:10.068Z,994.65
2019-01-16T06:35:09.995Z,994.65
2019-01-16T06:36:09.985Z,994.67
2019-01-16T06:37:09.972Z,994.60
2019-01-16T06:38:09.978Z,994.59
2019-01-16T06:39:09.952Z,994.63
2019-01-16T06:40:09.970Z,994.56
2019-01-16T06:41:09.933Z,994.54
2019-01-16T06:42:09.919Z,994.59
2019-01-16T06:43:09.923Z,994.53
2019-01-16T06:44:09.904Z,994.55
2019-01-16T06:45:09.888Z,994.50
2019-01-16T06:46:09.922Z,994.51
2019-01-16T06:47:09.866Z,994.54
2019-01-16T06:48:09.857Z,994.55
2019-01-16T06:49:09.844Z,994.51
2019-01-16T06:50:16.522Z,994.52
2019-01-16T06:51:10.912Z,994.53
2019-01-16T06:52:09.821Z,994.49
2019-01-16T06:53:09.799Z,994.52
2019-01-16T06:54:09.809Z,994.49
2019-01-16T06:55:09.779Z,994.51
2019-01-16T06:56:09.769Z,994.53
2019-01-16T06:57:09.804Z,994.50
2019-01-16T06:58:09.805Z,994.51
2019-01-16T06:59:09.735Z,994.48
2019-01-16T07:00:09.728Z,994.52
2019-01-16T07:01:09.715Z,994.51
2019-01-16T07:02:09.723Z,994.51
2019-01-16T07:03:09.740Z,994.49
2019-01-16T07:04:09.682Z,994.47
2019-01-16T07:05:09.677Z,994.41
2019-01-16T07:06:09.660Z,994.43
2019-01-16T07:07:09.651Z,994.41
2019-01-16T07:08:09.654Z,994.44
2019-01-16T07:09:09.687Z,994.45
2019-01-16T07:10:09.618Z,994.44
2019-01-16T07:11:09.607Z,994.42
2019-01-16T07:12:09.594Z,994.39
2019-01-16T07:13:09.585Z,994.36
2019-01-16T07:14:09.587Z,994.38
2019-01-16T07:15:09.597Z,994.39
2019-01-16T07:16:09.591Z,994.38
2019-01-16T07:17:09.543Z,994.45
2019-01-16T07:18:09.535Z,994.46
2019-01-16T07:19:09.522Z,994.46
2019-01-16T07:20:10.113Z,994.46
2019-01-16T07:21:09.550Z,994.45
2019-01-16T07:22:09.487Z,994.41
2019-01-16T07:23:09.478Z,994.40
2019-01-16T07:24:09.465Z,994.40
2019-01-16T07:25:09.454Z,994.45
2019-01-16T07:26:09.457Z,994.38
2019-01-16T07:27:09.475Z,994.39
2019-01-16T07:28:09.447Z,994.42
2019-01-16T07:29:09.424Z,994.39
2019-01-16T07:30:09.408Z,994.42
2019-01-16T07:31:09.396Z,994.44
2019-01-16T07:32:09.981Z,994.41
2019-01-16T07:33:09.404Z,994.43
2019-01-16T07:34:09.379Z,994.42
2019-01-16T07:35:09.518Z,994.46
2019-01-16T07:36:09.338Z,994.44
2019-01-16T07:37:09.342Z,994.38
2019-01-16T07:38:09.314Z,994.42
2019-01-16T07:39:09.356Z,994.42
2019-01-16T07:40:09.306Z,994.38
2019-01-16T07:41:09.296Z,994.39
2019-01-16T07:42:09.326Z,994.40
2019-01-16T07:43:09.263Z,994.35
2019-01-16T07:44:09.256Z,994.37
2019-01-16T07:45:09.290Z,994.30
2019-01-16T07:46:09.230Z,994.28
2019-01-16T07:47:09.218Z,994.26
2019-01-16T07:48:09.298Z,994.27
2019-01-16T07:49:09.276Z,994.30
2019-01-16T07:50:09.249Z,994.30
2019-01-16T07:51:09.205Z,994.24
2019-01-16T07:52:09.163Z,994.23
2019-01-16T07:53:09.166Z,994.28
2019-01-16T07:54:09.153Z,994.28
2019-01-16T07:55:09.137Z,994.30
2019-01-16T07:56:09.138Z,994.30
2019-01-16T07:57:09.185Z,994.31
2019-01-16T07:58:09.122Z,994.29
2019-01-16T07:59:09.140Z,994.29
2019-01-16T08:00:09.211Z,994.23
2019-01-16T08:01:09.082Z,994.25
2019-01-16T08:02:09.060Z,994.28
2019-01-16T08:03:09.094Z,994.21
2019-01-16T08:04:09.050Z,994.24
2019-01-16T08:05:09.023Z,994.23
2019-01-16T08:06:09.017Z,994.31
2019-01-16T08:07:09.145Z,994.29
2019-01-16T08:08:08.992Z,994.34
2019-01-16T08:09:09.024Z,994.32
2019-01-16T08:10:08.979Z,994.37
2019-01-16T08:11:08.963Z,994.36
2019-01-16T08:12:08.948Z,994.38
2019-01-16T08:13:08.940Z,994.35
2019-01-16T08:14:08.930Z,994.33
2019-01-16T08:15:08.960Z,994.24
2019-01-16T08:16:08.973Z,994.26
2019-01-16T08:17:08.904Z,994.19
2019-01-16T08:18:08.915Z,994.20
2019-01-16T08:19:08.874Z,994.16
2019-01-16T08:20:08.867Z,994.23
2019-01-16T08:21:08.908Z,994.23
2019-01-16T08:22:08.848Z,994.18
2019-01-16T08:23:08.830Z,994.25
2019-01-16T08:24:08.831Z,994.26
2019-01-16T08:25:08.822Z,994.26
2019-01-16T08:26:08.798Z,994.31
2019-01-16T08:27:08.842Z,994.29
2019-01-16T08:28:08.783Z,994.38
2019-01-16T08:29:08.776Z,994.36
2019-01-16T08:30:08.771Z,994.43
2019-01-16T08:31:08.856Z,994.47
2019-01-16T08:32:08.743Z,994.47
2019-01-16T08:33:08.773Z,994.50
2019-01-16T08:34:08.713Z,994.50
2019-01-16T08:35:08.712Z,994.53
2019-01-16T08:36:08.693Z,994.48
2019-01-16T08:37:08.683Z,994.42
2019-01-16T08:38:08.672Z,994.42
2019-01-16T08:39:08.700Z,994.34
2019-01-16T08:40:08.657Z,994.36
2019-01-16T08:41:08.646Z,994.36
2019-01-16T08:42:08.639Z,994.42
2019-01-16T08:43:08.626Z,994.35
2019-01-16T08:44:13.674Z,994.36
2019-01-16T08:45:09.670Z,994.32
2019-01-16T08:46:08.591Z,994.34
2019-01-16T08:47:08.584Z,994.41
2019-01-16T08:48:08.569Z,994.40
2019-01-16T08:49:08.623Z,994.37
2019-01-16T08:50:08.537Z,994.30
2019-01-16T08:51:08.633Z,994.27
2019-01-16T08:52:08.527Z,994.26
2019-01-16T08:53:08.506Z,994.24
2019-01-16T08:54:08.494Z,994.22
2019-01-16T08:55:08.494Z,994.19
2019-01-16T08:56:08.478Z,994.23
2019-01-16T08:57:08.649Z,994.21
2019-01-16T08:58:08.451Z,994.25
2019-01-16T08:59:08.441Z,994.18
2019-01-16T09:00:08.433Z,994.14
2019-01-16T09:01:08.422Z,994.14
2019-01-16T09:02:08.425Z,994.07
2019-01-16T09:03:08.432Z,994.04
2019-01-16T09:04:08.395Z,993.99
2019-01-16T09:05:08.377Z,994.05
2019-01-16T09:06:08.370Z,994.08
2019-01-16T09:07:08.358Z,994.04
2019-01-16T09:08:08.351Z,994.05
2019-01-16T09:09:08.396Z,994.06
2019-01-16T09:10:08.325Z,994.04
2019-01-16T09:11:08.321Z,994.06
2019-01-16T09:12:08.313Z,994.04
2019-01-16T09:13:08.299Z,994.01
2019-01-16T09:14:08.291Z,994.00
2019-01-16T09:15:08.317Z,994.04
2019-01-16T09:16:08.261Z,994.07
2019-01-16T09:17:08.260Z,994.08
2019-01-16T09:18:08.247Z,994.00
2019-01-16T09:19:08.231Z,993.98
2019-01-16T09:20:08.227Z,993.97
2019-01-16T09:21:08.255Z,993.97
2019-01-16T09:22:08.194Z,993.99
2019-01-16T09:23:08.183Z,994.04
2019-01-16T09:24:08.177Z,994.02
2019-01-16T09:25:08.171Z,994.01
2019-01-16T09:26:08.166Z,994.05
2019-01-16T09:27:08.196Z,994.04
2019-01-16T09:28:08.136Z,994.03
2019-01-16T09:29:08.130Z,994.10
2019-01-16T09:30:08.114Z,994.12
2019-01-16T09:31:08.123Z,994.13
2019-01-16T09:32:08.097Z,994.07
2019-01-16T09:33:08.127Z,994.03
2019-01-16T09:34:08.065Z,993.96
2019-01-16T09:35:08.064Z,993.99
2019-01-16T09:36:08.050Z,994.01
2019-01-16T09:37:08.040Z,994.03
2019-01-16T09:38:08.030Z,994.00
2019-01-16T09:39:08.061Z,993.99
2019-01-16T09:40:08.013Z,993.93
2019-01-16T09:41:07.988Z,993.89
2019-01-16T09:42:09.646Z,993.87
2019-01-16T09:43:07.980Z,993.86
2019-01-16T09:44:07.957Z,993.87
2019-01-16T09:45:07.990Z,993.91
2019-01-16T09:46:07.935Z,993.85
2019-01-16T09:47:07.923Z,993.82
2019-01-16T09:48:07.917Z,993.86
2019-01-16T09:49:07.917Z,993.86
2019-01-16T09:50:07.898Z,993.81
2019-01-16T09:51:07.929Z,993.81
2019-01-16T09:52:07.868Z,993.74
2019-01-16T09:53:07.858Z,993.73
2019-01-16T09:54:07.847Z,993.70
2019-01-16T09:55:07.837Z,993.68
2019-01-16T09:56:07.833Z,993.70
2019-01-16T09:57:07.862Z,993.73
2019-01-16T09:58:07.810Z,993.73
2019-01-16T09:59:07.810Z,993.78
2019-01-16T10:00:07.854Z,993.69
2019-01-16T10:01:07.778Z,993.68
2019-01-16T10:02:07.768Z,993.62
2019-01-16T10:03:07.795Z,993.68
2019-01-16T10:04:07.750Z,993.63
2019-01-16T10:05:07.746Z,993.64
2019-01-16T10:06:07.717Z,993.68
2019-01-16T10:07:07.708Z,993.62
2019-01-16T10:08:07.712Z,993.63
2019-01-16T10:09:07.867Z,993.56
2019-01-16T10:10:07.673Z,993.59
2019-01-16T10:11:07.670Z,993.60
2019-01-16T10:12:07.661Z,993.56
2019-01-16T10:13:07.648Z,993.57
2019-01-16T10:14:07.669Z,993.55
2019-01-16T10:15:07.686Z,993.50
2019-01-16T10:16:07.626Z,993.52
2019-01-16T10:17:07.613Z,993.52
2019-01-16T10:18:07.627Z,993.47
2019-01-16T10:19:07.582Z,993.43
2019-01-16T10:20:07.582Z,993.46
2019-01-16T10:21:07.608Z,993.44
2019-01-16T10:22:07.554Z,993.37
2019-01-16T10:23:07.599Z,993.39
2019-01-16T10:24:07.552Z,993.32
2019-01-16T10:25:07.548Z,993.31
2019-01-16T10:26:07.508Z,993.35
2019-01-16T10:27:07.553Z,993.25
2019-01-16T10:28:07.486Z,993.29
2019-01-16T10:29:07.483Z,993.30
2019-01-16T10:30:07.464Z,993.25
2019-01-16T10:31:07.488Z,993.16
2019-01-16T10:32:07.452Z,993.21
2019-01-16T10:33:07.470Z,993.15
2019-01-16T10:34:07.417Z,993.12
2019-01-16T10:35:07.408Z,993.13
2019-01-16T10:36:07.399Z,993.10
2019-01-16T10:37:07.389Z,993.01
2019-01-16T10:38:07.382Z,993.00
2019-01-16T10:39:07.412Z,993.00
2019-01-16T10:40:07.354Z,993.01
2019-01-16T10:41:07.341Z,992.96
2019-01-16T10:42:07.330Z,992.88
2019-01-16T10:43:07.319Z,992.86
2019-01-16T10:44:07.316Z,992.87
2019-01-16T10:45:07.379Z,992.84
2019-01-16T10:46:07.305Z,992.87
2019-01-16T10:47:07.320Z,992.86
2019-01-16T10:48:07.306Z,992.81
2019-01-16T10:49:07.326Z,992.80
2019-01-16T10:50:07.252Z,992.77
2019-01-16T10:51:07.278Z,992.74
2019-01-16T10:52:07.225Z,992.74
2019-01-16T10:53:07.221Z,992.70
2019-01-16T10:54:07.202Z,992.71
2019-01-16T10:55:07.192Z,992.77
2019-01-16T10:56:07.181Z,992.72
2019-01-16T10:57:07.204Z,992.66
2019-01-16T10:58:07.159Z,992.64
2019-01-16T10:59:07.148Z,992.70
2019-01-16T11:00:07.151Z,992.68
2019-01-16T11:01:07.129Z,992.60
2019-01-16T11:02:07.137Z,992.61
2019-01-16T11:03:07.145Z,992.57
2019-01-16T11:04:07.095Z,992.58
2019-01-16T11:05:07.102Z,992.58
2019-01-16T11:06:07.071Z,992.58
2019-01-16T11:07:07.060Z,992.57
2019-01-16T11:08:07.068Z,992.53
2019-01-16T11:09:07.070Z,992.52
2019-01-16T11:10:07.030Z,992.53
2019-01-16T11:11:07.019Z,992.48
2019-01-16T11:12:07.006Z,992.45
2019-01-16T11:13:06.993Z,992.42
2019-01-16T11:14:06.980Z,992.34
2019-01-16T11:15:07.010Z,992.38
2019-01-16T11:16:06.962Z,992.35
2019-01-16T11:17:06.952Z,992.31
2019-01-16T11:18:06.940Z,992.33
2019-01-16T11:19:06.926Z,992.35
2019-01-16T11:20:06.912Z,992.31
2019-01-16T11:21:11.180Z,992.29
2019-01-16T11:22:06.898Z,992.25
2019-01-16T11:23:06.887Z,992.22
2019-01-16T11:24:06.879Z,992.17
2019-01-16T11:25:06.860Z,992.15
2019-01-16T11:26:06.857Z,992.19
2019-01-16T11:27:06.882Z,992.16
2019-01-16T11:28:06.829Z,992.09
2019-01-16T11:29:06.832Z,992.12
2019-01-16T11:30:06.814Z,992.11
2019-01-16T11:31:06.792Z,991.97
2019-01-16T11:32:06.797Z,991.97
2019-01-16T11:33:06.814Z,991.89
2019-01-16T11:34:06.767Z,991.91
2019-01-16T11:35:06.764Z,991.88
2019-01-16T11:36:06.744Z,991.87
2019-01-16T11:37:06.737Z,991.85
2019-01-16T11:38:06.722Z,991.87
2019-01-16T11:39:06.769Z,991.84
2019-01-16T11:40:06.748Z,991.87
2019-01-16T11:41:06.730Z,991.86
2019-01-16T11:42:06.682Z,991.79
2019-01-16T11:43:06.701Z,991.75
2019-01-16T11:44:06.656Z,991.71
2019-01-16T11:45:06.687Z,991.69
2019-01-16T11:46:06.643Z,991.72
2019-01-16T11:47:06.628Z,991.71
2019-01-16T11:48:06.629Z,991.74
2019-01-16T11:49:06.605Z,991.72
2019-01-16T11:50:06.612Z,991.67
2019-01-16T11:51:06.633Z,991.70
2019-01-16T11:52:06.564Z,991.64
2019-01-16T11:53:06.561Z,991.64
2019-01-16T11:54:06.543Z,991.64
2019-01-16T11:55:06.531Z,991.60
2019-01-16T11:56:06.528Z,991.55
2019-01-16T11:57:06.563Z,991.55
2019-01-16T11:58:06.507Z,991.51
2019-01-16T11:59:06.491Z,991.50
2019-01-16T12:00:06.479Z,991.54
2019-01-16T12:01:06.474Z,991.51
2019-01-16T12:02:06.460Z,991.50
2019-01-16T12:03:06.482Z,991.48
2019-01-16T12:04:06.434Z,991.40
2019-01-16T12:05:06.444Z,991.43
2019-01-16T12:06:06.424Z,991.42
2019-01-16T12:07:06.425Z,991.39
2019-01-16T12:08:06.405Z,991.35
2019-01-16T12:09:06.427Z,991.41
2019-01-16T12:10:06.372Z,991.31
2019-01-16T12:11:06.365Z,991.31
2019-01-16T12:12:06.356Z,991.28
2019-01-16T12:13:06.343Z,991.24
2019-01-16T12:14:06.328Z,991.18
2019-01-16T12:15:06.489Z,991.18
2019-01-16T12:16:06.305Z,991.12
2019-01-16T12:17:06.296Z,991.08
2019-01-16T12:18:06.336Z,991.07
2019-01-16T12:19:06.278Z,991.00
2019-01-16T12:20:06.271Z,990.92
2019-01-16T12:21:06.298Z,990.81
2019-01-16T12:22:06.246Z,990.78
2019-01-16T12:23:06.232Z,990.76
2019-01-16T12:24:06.230Z,990.78
2019-01-16T12:25:06.209Z,990.81
2019-01-16T12:26:08.317Z,990.78
2019-01-16T12:27:06.235Z,990.80
2019-01-16T12:28:06.182Z,990.76